sensor_id;sensor_type;location;lat;lon;timestamp;temperature;humidity
53410;DHT22;66590;50.734;4.246;2023-11-21T00:02:23;9.90;99.90
53410;DHT22;66590;50.734;4.246;2023-11-21T00:04:51;10.00;99.90
53410;DHT22;66590;50.734;4.246;2023-11-21T00:07:19;10.10;99.90
53410;DHT22;66590;50.734;4.246;2023-11-21T00:09:52;10.20;99.90
53410;DHT22;66590;50.734;4.246;2023-11-21T00:12:19;10.10;99.90
53410;DHT22;66590;50.734;4.246;2023-11-21T00:14:59;10.10;99.90
53410;DHT22;66590;50.734;4.246;2023-11-21T00:17:32;10.00;99.90
53410;DHT22;66590;50.734;4.246;2023-11-21T00:20:08;9.90;99.90
53410;DHT22;66590;50.734;4.246;2023-11-21T00:22:44;9.80;99.90
53410;DHT22;66590;50.734;4.246;2023-11-21T00:25:17;9.80;99.90
53410;DHT22;66590;50.734;4.246;2023-11-21T00:27:44;9.70;99.90
53410;DHT22;66590;50.734;4.246;2023-11-21T00:30:17;9.70;99.90
53410;DHT22;66590;50.734;4.246;2023-11-21T00:32:44;9.60;99.90
53410;DHT22;66590;50.734;4.246;2023-11-21T00:35:17;9.60;99.90
53410;DHT22;66590;50.734;4.246;2023-11-21T00:37:46;9.50;99.90
53410;DHT22;66590;50.734;4.246;2023-11-21T00:40:19;9.40;99.90
53410;DHT22;66590;50.734;4.246;2023-11-21T00:42:46;9.40;99.90
53410;DHT22;66590;50.734;4.246;2023-11-21T00:45:26;9.30;99.90
53410;DHT22;66590;50.734;4.246;2023-11-21T00:47:59;9.40;99.90
53410;DHT22;66590;50.734;4.246;2023-11-21T00:50:32;9.40;99.90
53410;DHT22;66590;50.734;4.246;2023-11-21T00:53:07;9.30;99.90
53410;DHT22;66590;50.734;4.246;2023-11-21T00:55:40;9.40;99.90
53410;DHT22;66590;50.734;4.246;2023-11-21T00:58:13;9.30;99.90
53410;DHT22;66590;50.734;4.246;2023-11-21T01:00:40;9.30;99.90
53410;DHT22;66590;50.734;4.246;2023-11-21T01:03:13;9.30;99.90
53410;DHT22;66590;50.734;4.246;2023-11-21T01:05:40;9.20;99.90
53410;DHT22;66590;50.734;4.246;2023-11-21T01:08:09;9.10;99.90
53410;DHT22;66590;50.734;4.246;2023-11-21T01:10:42;9.00;99.90
53410;DHT22;66590;50.734;4.246;2023-11-21T01:13:09;9.00;99.90
53410;DHT22;66590;50.734;4.246;2023-11-21T01:15:43;8.90;99.90
53410;DHT22;66590;50.734;4.246;2023-11-21T01:18:16;8.90;99.90
53410;DHT22;66590;50.734;4.246;2023-11-21T01:20:49;9.00;99.90
53410;DHT22;66590;50.734;4.246;2023-11-21T01:23:18;9.10;99.90
53410;DHT22;66590;50.734;4.246;2023-11-21T01:25:51;9.20;99.90
53410;DHT22;66590;50.734;4.246;2023-11-21T01:28:24;9.20;99.90
53410;DHT22;66590;50.734;4.246;2023-11-21T01:30:51;9.20;99.90
53410;DHT22;66590;50.734;4.246;2023-11-21T01:33:25;9.20;99.90
53410;DHT22;66590;50.734;4.246;2023-11-21T01:35:58;9.30;99.90
53410;DHT22;66590;50.734;4.246;2023-11-21T01:38:34;9.30;99.90
53410;DHT22;66590;50.734;4.246;2023-11-21T01:41:01;9.40;99.90
53410;DHT22;66590;50.734;4.246;2023-11-21T01:43:34;9.30;99.90
53410;DHT22;66590;50.734;4.246;2023-11-21T01:46:08;9.30;99.90
53410;DHT22;66590;50.734;4.246;2023-11-21T01:48:41;9.30;99.90
53410;DHT22;66590;50.734;4.246;2023-11-21T01:51:16;9.30;99.90
53410;DHT22;66590;50.734;4.246;2023-11-21T01:53:51;9.30;99.90
53410;DHT22;66590;50.734;4.246;2023-11-21T01:56:24;9.40;99.90
53410;DHT22;66590;50.734;4.246;2023-11-21T01:58:51;9.40;99.90
53410;DHT22;66590;50.734;4.246;2023-11-21T02:01:18;9.40;99.90
53410;DHT22;66590;50.734;4.246;2023-11-21T02:03:51;9.50;99.90
53410;DHT22;66590;50.734;4.246;2023-11-21T02:06:18;9.50;99.90
53410;DHT22;66590;50.734;4.246;2023-11-21T02:08:54;9.40;99.90
53410;DHT22;66590;50.734;4.246;2023-11-21T02:11:27;9.50;99.90
53410;DHT22;66590;50.734;4.246;2023-11-21T02:14:00;9.50;99.90
53410;DHT22;66590;50.734;4.246;2023-11-21T02:16:27;9.40;99.90
53410;DHT22;66590;50.734;4.246;2023-11-21T02:19:01;9.50;99.90
53410;DHT22;66590;50.734;4.246;2023-11-21T02:21:35;9.40;99.90
53410;DHT22;66590;50.734;4.246;2023-11-21T02:24:10;9.40;99.90
53410;DHT22;66590;50.734;4.246;2023-11-21T02:26:37;9.40;99.90
53410;DHT22;66590;50.734;4.246;2023-11-21T02:29:10;9.50;99.90
53410;DHT22;66590;50.734;4.246;2023-11-21T02:31:37;9.60;99.90
53410;DHT22;66590;50.734;4.246;2023-11-21T02:34:04;9.50;99.90
53410;DHT22;66590;50.734;4.246;2023-11-21T02:36:37;9.60;99.90
53410;DHT22;66590;50.734;4.246;2023-11-21T02:39:12;9.70;99.90
53410;DHT22;66590;50.734;4.246;2023-11-21T02:41:45;9.60;99.90
53410;DHT22;66590;50.734;4.246;2023-11-21T02:44:19;9.70;99.90
53410;DHT22;66590;50.734;4.246;2023-11-21T02:46:52;9.70;99.90
53410;DHT22;66590;50.734;4.246;2023-11-21T02:49:25;9.70;99.90
53410;DHT22;66590;50.734;4.246;2023-11-21T02:51:59;9.70;99.90
53410;DHT22;66590;50.734;4.246;2023-11-21T02:54:28;9.70;99.90
53410;DHT22;66590;50.734;4.246;2023-11-21T02:57:01;9.80;99.90
53410;DHT22;66590;50.734;4.246;2023-11-21T02:59:34;9.70;99.90
53410;DHT22;66590;50.734;4.246;2023-11-21T03:02:01;9.70;99.90
53410;DHT22;66590;50.734;4.246;2023-11-21T03:04:34;9.60;99.90
53410;DHT22;66590;50.734;4.246;2023-11-21T03:07:09;9.50;99.90
53410;DHT22;66590;50.734;4.246;2023-11-21T03:09:44;9.60;99.90
53410;DHT22;66590;50.734;4.246;2023-11-21T03:12:11;9.70;99.90
53410;DHT22;66590;50.734;4.246;2023-11-21T03:14:44;9.70;99.90
53410;DHT22;66590;50.734;4.246;2023-11-21T03:17:11;9.60;99.90
53410;DHT22;66590;50.734;4.246;2023-11-21T03:19:44;9.70;99.90
53410;DHT22;66590;50.734;4.246;2023-11-21T03:22:11;9.70;99.90
53410;DHT22;66590;50.734;4.246;2023-11-21T03:24:46;9.70;99.90
53410;DHT22;66590;50.734;4.246;2023-11-21T03:27:19;9.80;99.90
53410;DHT22;66590;50.734;4.246;2023-11-21T03:29:52;9.80;99.90
53410;DHT22;66590;50.734;4.246;2023-11-21T03:32:26;9.80;99.90
53410;DHT22;66590;50.734;4.246;2023-11-21T03:34:59;9.80;99.90
53410;DHT22;66590;50.734;4.246;2023-11-21T03:37:26;9.70;99.90
53410;DHT22;66590;50.734;4.246;2023-11-21T03:39:55;9.70;99.90
53410;DHT22;66590;50.734;4.246;2023-11-21T03:42:28;9.60;99.90
53410;DHT22;66590;50.734;4.246;2023-11-21T03:45:02;9.60;99.90
53410;DHT22;66590;50.734;4.246;2023-11-21T03:47:36;9.50;99.90
53410;DHT22;66590;50.734;4.246;2023-11-21T03:50:10;9.60;99.90
53410;DHT22;66590;50.734;4.246;2023-11-21T03:52:43;9.70;99.90
53410;DHT22;66590;50.734;4.246;2023-11-21T03:55:12;9.60;99.90
53410;DHT22;66590;50.734;4.246;2023-11-21T03:57:45;9.60;99.90
53410;DHT22;66590;50.734;4.246;2023-11-21T04:00:20;9.60;99.90
53410;DHT22;66590;50.734;4.246;2023-11-21T04:02:53;9.50;99.90
53410;DHT22;66590;50.734;4.246;2023-11-21T04:05:27;9.60;99.90
53410;DHT22;66590;50.734;4.246;2023-11-21T04:08:00;9.60;99.90
53410;DHT22;66590;50.734;4.246;2023-11-21T04:10:35;9.50;99.90
53410;DHT22;66590;50.734;4.246;2023-11-21T04:13:08;9.60;99.90
53410;DHT22;66590;50.734;4.246;2023-11-21T04:15:35;9.60;99.90
53410;DHT22;66590;50.734;4.246;2023-11-21T04:18:02;9.60;99.90
53410;DHT22;66590;50.734;4.246;2023-11-21T04:20:36;9.60;99.90
53410;DHT22;66590;50.734;4.246;2023-11-21T04:23:03;9.50;99.90
53410;DHT22;66590;50.734;4.246;2023-11-21T04:25:38;9.50;99.90
53410;DHT22;66590;50.734;4.246;2023-11-21T04:28:05;9.60;99.90
53410;DHT22;66590;50.734;4.246;2023-11-21T04:30:38;9.70;99.90
53410;DHT22;66590;50.734;4.246;2023-11-21T04:33:11;9.60;99.90
53410;DHT22;66590;50.734;4.246;2023-11-21T04:35:45;9.60;99.90
53410;DHT22;66590;50.734;4.246;2023-11-21T04:38:19;9.50;99.90
53410;DHT22;66590;50.734;4.246;2023-11-21T04:40:54;9.50;99.90
53410;DHT22;66590;50.734;4.246;2023-11-21T04:43:21;9.50;99.90
53410;DHT22;66590;50.734;4.246;2023-11-21T04:46:01;9.60;99.90
53410;DHT22;66590;50.734;4.246;2023-11-21T04:48:28;9.70;99.90
53410;DHT22;66590;50.734;4.246;2023-11-21T04:51:01;9.80;99.90
53410;DHT22;66590;50.734;4.246;2023-11-21T04:53:28;9.90;99.90
53410;DHT22;66590;50.734;4.246;2023-11-21T04:56:03;9.80;99.90
53410;DHT22;66590;50.734;4.246;2023-11-21T04:58:38;9.90;99.90
53410;DHT22;66590;50.734;4.246;2023-11-21T05:01:11;9.70;99.90
53410;DHT22;66590;50.734;4.246;2023-11-21T05:03:38;9.80;99.90
53410;DHT22;66590;50.734;4.246;2023-11-21T05:06:13;9.80;99.90
53410;DHT22;66590;50.734;4.246;2023-11-21T05:08:40;9.80;99.90
53410;DHT22;66590;50.734;4.246;2023-11-21T05:11:24;9.80;99.90
53410;DHT22;66590;50.734;4.246;2023-11-21T05:13:51;9.70;99.90
53410;DHT22;66590;50.734;4.246;2023-11-21T05:16:26;9.60;99.90
53410;DHT22;66590;50.734;4.246;2023-11-21T05:18:53;9.60;99.90
53410;DHT22;66590;50.734;4.246;2023-11-21T05:21:26;9.60;99.90
53410;DHT22;66590;50.734;4.246;2023-11-21T05:23:53;9.60;99.90
53410;DHT22;66590;50.734;4.246;2023-11-21T05:26:20;9.60;99.90
53410;DHT22;66590;50.734;4.246;2023-11-21T05:28:55;9.50;99.90
53410;DHT22;66590;50.734;4.246;2023-11-21T05:31:22;9.50;99.90
53410;DHT22;66590;50.734;4.246;2023-11-21T05:33:56;9.60;99.90
53410;DHT22;66590;50.734;4.246;2023-11-21T05:36:22;9.60;99.90
53410;DHT22;66590;50.734;4.246;2023-11-21T05:38:56;9.60;99.90
53410;DHT22;66590;50.734;4.246;2023-11-21T05:41:23;9.60;99.90
53410;DHT22;66590;50.734;4.246;2023-11-21T05:44:05;9.70;99.90
53410;DHT22;66590;50.734;4.246;2023-11-21T05:46:32;9.70;99.90
53410;DHT22;66590;50.734;4.246;2023-11-21T05:49:05;9.70;99.90
53410;DHT22;66590;50.734;4.246;2023-11-21T05:51:39;9.70;99.90
53410;DHT22;66590;50.734;4.246;2023-11-21T05:54:12;9.70;99.90
53410;DHT22;66590;50.734;4.246;2023-11-21T05:56:40;9.70;99.90
53410;DHT22;66590;50.734;4.246;2023-11-21T05:59:15;9.70;99.90
53410;DHT22;66590;50.734;4.246;2023-11-21T06:01:49;9.70;99.90
53410;DHT22;66590;50.734;4.246;2023-11-21T06:04:22;9.80;99.90
53410;DHT22;66590;50.734;4.246;2023-11-21T06:06:51;9.80;99.90
53410;DHT22;66590;50.734;4.246;2023-11-21T06:09:18;9.70;99.90
53410;DHT22;66590;50.734;4.246;2023-11-21T06:11:51;9.70;99.90
53410;DHT22;66590;50.734;4.246;2023-11-21T06:14:20;9.70;99.90
53410;DHT22;66590;50.734;4.246;2023-11-21T06:16:47;9.70;99.90
53410;DHT22;66590;50.734;4.246;2023-11-21T06:19:20;9.70;99.90
53410;DHT22;66590;50.734;4.246;2023-11-21T06:21:53;9.60;99.90
53410;DHT22;66590;50.734;4.246;2023-11-21T06:24:27;9.60;99.90
53410;DHT22;66590;50.734;4.246;2023-11-21T06:27:01;9.70;99.90
53410;DHT22;66590;50.734;4.246;2023-11-21T06:29:38;9.70;99.90
53410;DHT22;66590;50.734;4.246;2023-11-21T06:32:05;9.80;99.90
53410;DHT22;66590;50.734;4.246;2023-11-21T06:34:39;9.70;99.90
53410;DHT22;66590;50.734;4.246;2023-11-21T06:37:13;9.80;99.90
53410;DHT22;66590;50.734;4.246;2023-11-21T06:39:46;9.80;99.90
53410;DHT22;66590;50.734;4.246;2023-11-21T06:42:13;9.90;99.90
53410;DHT22;66590;50.734;4.246;2023-11-21T06:44:54;9.90;99.90
53410;DHT22;66590;50.734;4.246;2023-11-21T06:47:29;9.80;99.90
53410;DHT22;66590;50.734;4.246;2023-11-21T06:50:03;9.70;99.90
53410;DHT22;66590;50.734;4.246;2023-11-21T06:52:37;9.70;99.90
53410;DHT22;66590;50.734;4.246;2023-11-21T06:55:11;9.80;99.90
53410;DHT22;66590;50.734;4.246;2023-11-21T06:57:38;9.70;99.90
53410;DHT22;66590;50.734;4.246;2023-11-21T07:00:15;9.70;99.90
53410;DHT22;66590;50.734;4.246;2023-11-21T07:02:49;9.70;99.90
53410;DHT22;66590;50.734;4.246;2023-11-21T07:05:23;9.80;99.90
53410;DHT22;66590;50.734;4.246;2023-11-21T07:07:50;9.80;99.90
53410;DHT22;66590;50.734;4.246;2023-11-21T07:10:17;9.70;99.90
53410;DHT22;66590;50.734;4.246;2023-11-21T07:12:51;9.70;99.90
53410;DHT22;66590;50.734;4.246;2023-11-21T07:15:19;9.70;99.90
53410;DHT22;66590;50.734;4.246;2023-11-21T07:17:46;9.60;99.90
53410;DHT22;66590;50.734;4.246;2023-11-21T07:20:20;9.60;99.90
53410;DHT22;66590;50.734;4.246;2023-11-21T07:22:53;9.60;99.90
53410;DHT22;66590;50.734;4.246;2023-11-21T07:25:21;9.60;99.90
53410;DHT22;66590;50.734;4.246;2023-11-21T07:27:54;9.60;99.90
53410;DHT22;66590;50.734;4.246;2023-11-21T07:30:30;9.70;99.90
53410;DHT22;66590;50.734;4.246;2023-11-21T07:33:03;9.80;99.90
53410;DHT22;66590;50.734;4.246;2023-11-21T07:35:31;9.90;99.90
53410;DHT22;66590;50.734;4.246;2023-11-21T07:38:05;9.90;99.90
53410;DHT22;66590;50.734;4.246;2023-11-21T07:40:38;9.90;99.90
53410;DHT22;66590;50.734;4.246;2023-11-21T07:43:05;10.00;99.90
53410;DHT22;66590;50.734;4.246;2023-11-21T07:45:46;10.00;99.90
53410;DHT22;66590;50.734;4.246;2023-11-21T07:48:19;10.00;99.90
53410;DHT22;66590;50.734;4.246;2023-11-21T07:50:52;9.90;99.90
53410;DHT22;66590;50.734;4.246;2023-11-21T07:53:26;9.90;99.90
53410;DHT22;66590;50.734;4.246;2023-11-21T07:56:03;9.80;99.90
53410;DHT22;66590;50.734;4.246;2023-11-21T07:58:30;9.90;99.90
53410;DHT22;66590;50.734;4.246;2023-11-21T08:01:05;9.90;99.90
53410;DHT22;66590;50.734;4.246;2023-11-21T08:03:38;9.90;99.90
53410;DHT22;66590;50.734;4.246;2023-11-21T08:06:12;9.90;99.90
53410;DHT22;66590;50.734;4.246;2023-11-21T08:08:45;9.90;99.90
53410;DHT22;66590;50.734;4.246;2023-11-21T08:11:12;9.90;99.90
53410;DHT22;66590;50.734;4.246;2023-11-21T08:13:48;10.00;99.90
53410;DHT22;66590;50.734;4.246;2023-11-21T08:16:16;10.00;99.90
53410;DHT22;66590;50.734;4.246;2023-11-21T08:18:43;10.00;99.90
53410;DHT22;66590;50.734;4.246;2023-11-21T08:21:17;9.90;99.90
53410;DHT22;66590;50.734;4.246;2023-11-21T08:23:44;10.00;99.90
53410;DHT22;66590;50.734;4.246;2023-11-21T08:26:11;10.10;99.90
53410;DHT22;66590;50.734;4.246;2023-11-21T08:28:45;10.00;99.90
53410;DHT22;66590;50.734;4.246;2023-11-21T08:31:12;10.00;99.90
53410;DHT22;66590;50.734;4.246;2023-11-21T08:33:43;10.00;99.90
53410;DHT22;66590;50.734;4.246;2023-11-21T08:36:16;10.00;99.90
53410;DHT22;66590;50.734;4.246;2023-11-21T08:38:43;10.00;99.90
53410;DHT22;66590;50.734;4.246;2023-11-21T08:41:10;10.00;99.90
53410;DHT22;66590;50.734;4.246;2023-11-21T08:43:43;10.00;99.90
53410;DHT22;66590;50.734;4.246;2023-11-21T08:46:17;10.10;99.90
53410;DHT22;66590;50.734;4.246;2023-11-21T08:48:52;10.10;99.90
53410;DHT22;66590;50.734;4.246;2023-11-21T08:51:19;10.10;99.90
53410;DHT22;66590;50.734;4.246;2023-11-21T08:53:52;10.20;99.90
53410;DHT22;66590;50.734;4.246;2023-11-21T08:56:25;10.20;99.90
53410;DHT22;66590;50.734;4.246;2023-11-21T08:58:59;10.30;99.90
53410;DHT22;66590;50.734;4.246;2023-11-21T09:01:26;10.30;99.90
53410;DHT22;66590;50.734;4.246;2023-11-21T09:04:01;10.30;99.90
53410;DHT22;66590;50.734;4.246;2023-11-21T09:06:28;10.30;99.90
53410;DHT22;66590;50.734;4.246;2023-11-21T09:09:01;10.40;99.90
53410;DHT22;66590;50.734;4.246;2023-11-21T09:11:28;10.30;99.90
53410;DHT22;66590;50.734;4.246;2023-11-21T09:13:55;10.40;99.90
53410;DHT22;66590;50.734;4.246;2023-11-21T09:16:29;10.30;99.90
53410;DHT22;66590;50.734;4.246;2023-11-21T09:18:56;10.30;99.90
53410;DHT22;66590;50.734;4.246;2023-11-21T09:21:27;10.20;99.90
53410;DHT22;66590;50.734;4.246;2023-11-21T09:24:00;10.20;99.90
53410;DHT22;66590;50.734;4.246;2023-11-21T09:26:27;10.20;99.90
53410;DHT22;66590;50.734;4.246;2023-11-21T09:29:00;10.20;99.90
53410;DHT22;66590;50.734;4.246;2023-11-21T09:31:33;10.40;99.90
53410;DHT22;66590;50.734;4.246;2023-11-21T09:34:00;10.50;99.90
53410;DHT22;66590;50.734;4.246;2023-11-21T09:36:35;10.50;99.90
53410;DHT22;66590;50.734;4.246;2023-11-21T09:39:02;10.50;99.90
53410;DHT22;66590;50.734;4.246;2023-11-21T09:41:40;10.60;99.90
53410;DHT22;66590;50.734;4.246;2023-11-21T09:44:28;10.50;99.90
53410;DHT22;66590;50.734;4.246;2023-11-21T09:47:04;10.50;99.90
53410;DHT22;66590;50.734;4.246;2023-11-21T09:49:33;10.50;99.90
53410;DHT22;66590;50.734;4.246;2023-11-21T09:52:09;10.50;99.90
53410;DHT22;66590;50.734;4.246;2023-11-21T09:54:39;10.60;99.90
53410;DHT22;66590;50.734;4.246;2023-11-21T09:57:13;10.50;99.90
53410;DHT22;66590;50.734;4.246;2023-11-21T09:59:40;10.70;99.90
53410;DHT22;66590;50.734;4.246;2023-11-21T10:02:14;10.80;99.90
53410;DHT22;66590;50.734;4.246;2023-11-21T10:04:42;10.60;99.90
53410;DHT22;66590;50.734;4.246;2023-11-21T10:07:11;10.50;99.90
53410;DHT22;66590;50.734;4.246;2023-11-21T10:09:46;10.40;99.90
53410;DHT22;66590;50.734;4.246;2023-11-21T10:12:15;10.50;99.90
53410;DHT22;66590;50.734;4.246;2023-11-21T10:14:42;10.40;99.90
53410;DHT22;66590;50.734;4.246;2023-11-21T10:17:17;10.40;99.90
53410;DHT22;66590;50.734;4.246;2023-11-21T10:19:46;10.40;99.90
53410;DHT22;66590;50.734;4.246;2023-11-21T10:22:22;10.50;99.90
53410;DHT22;66590;50.734;4.246;2023-11-21T10:24:50;10.60;99.90
53410;DHT22;66590;50.734;4.246;2023-11-21T10:27:26;10.70;99.90
53410;DHT22;66590;50.734;4.246;2023-11-21T10:29:53;10.90;99.90
53410;DHT22;66590;50.734;4.246;2023-11-21T10:32:20;10.90;99.90
53410;DHT22;66590;50.734;4.246;2023-11-21T10:34:57;10.90;99.90
53410;DHT22;66590;50.734;4.246;2023-11-21T10:37:25;11.10;99.90
53410;DHT22;66590;50.734;4.246;2023-11-21T10:39:59;11.10;99.90
53410;DHT22;66590;50.734;4.246;2023-11-21T10:42:26;11.10;99.90
53410;DHT22;66590;50.734;4.246;2023-11-21T10:45:07;11.20;99.90
53410;DHT22;66590;50.734;4.246;2023-11-21T10:47:34;11.10;99.90
53410;DHT22;66590;50.734;4.246;2023-11-21T10:50:08;11.20;99.90
53410;DHT22;66590;50.734;4.246;2023-11-21T10:52:37;11.40;99.90
53410;DHT22;66590;50.734;4.246;2023-11-21T10:55:17;11.70;99.90
53410;DHT22;66590;50.734;4.246;2023-11-21T10:57:46;11.80;99.90
53410;DHT22;66590;50.734;4.246;2023-11-21T11:00:22;11.80;99.90
53410;DHT22;66590;50.734;4.246;2023-11-21T11:02:53;11.80;99.90
53410;DHT22;66590;50.734;4.246;2023-11-21T11:05:28;11.80;99.90
53410;DHT22;66590;50.734;4.246;2023-11-21T11:08:00;12.00;99.90
53410;DHT22;66590;50.734;4.246;2023-11-21T11:10:34;12.10;99.90
53410;DHT22;66590;50.734;4.246;2023-11-21T11:13:02;12.20;99.90
53410;DHT22;66590;50.734;4.246;2023-11-21T11:15:35;12.00;99.90
53410;DHT22;66590;50.734;4.246;2023-11-21T11:18:03;11.90;99.90
53410;DHT22;66590;50.734;4.246;2023-11-21T11:20:38;11.80;99.90
53410;DHT22;66590;50.734;4.246;2023-11-21T11:23:30;11.70;99.90
53410;DHT22;66590;50.734;4.246;2023-11-21T11:26:12;11.70;99.90
53410;DHT22;66590;50.734;4.246;2023-11-21T11:28:57;11.60;99.90
53410;DHT22;66590;50.734;4.246;2023-11-21T11:31:32;11.50;99.90
53410;DHT22;66590;50.734;4.246;2023-11-21T11:34:20;11.70;99.90
53410;DHT22;66590;50.734;4.246;2023-11-21T11:37:01;11.70;99.90
53410;DHT22;66590;50.734;4.246;2023-11-21T11:39:38;11.70;99.90
53410;DHT22;66590;50.734;4.246;2023-11-21T11:42:08;11.60;99.90
53410;DHT22;66590;50.734;4.246;2023-11-21T11:44:52;11.70;99.90
53410;DHT22;66590;50.734;4.246;2023-11-21T11:47:22;11.80;99.90
53410;DHT22;66590;50.734;4.246;2023-11-21T11:50:01;11.60;99.90
53410;DHT22;66590;50.734;4.246;2023-11-21T11:52:35;11.60;99.90
53410;DHT22;66590;50.734;4.246;2023-11-21T11:55:11;11.70;99.90
53410;DHT22;66590;50.734;4.246;2023-11-21T11:57:39;11.80;99.90
53410;DHT22;66590;50.734;4.246;2023-11-21T12:00:17;11.80;99.90
53410;DHT22;66590;50.734;4.246;2023-11-21T12:02:45;11.80;99.90
53410;DHT22;66590;50.734;4.246;2023-11-21T12:05:19;11.80;99.90
53410;DHT22;66590;50.734;4.246;2023-11-21T12:07:55;11.70;99.90
53410;DHT22;66590;50.734;4.246;2023-11-21T12:10:30;11.80;99.90
53410;DHT22;66590;50.734;4.246;2023-11-21T12:13:06;11.80;99.90
53410;DHT22;66590;50.734;4.246;2023-11-21T12:15:47;11.90;99.90
53410;DHT22;66590;50.734;4.246;2023-11-21T12:18:21;12.00;99.90
53410;DHT22;66590;50.734;4.246;2023-11-21T12:20:55;12.00;99.90
53410;DHT22;66590;50.734;4.246;2023-11-21T12:23:28;12.00;99.90
53410;DHT22;66590;50.734;4.246;2023-11-21T12:26:04;12.00;99.90
53410;DHT22;66590;50.734;4.246;2023-11-21T12:28:31;12.10;99.90
53410;DHT22;66590;50.734;4.246;2023-11-21T12:31:06;12.10;99.90
53410;DHT22;66590;50.734;4.246;2023-11-21T12:33:48;12.10;99.90
53410;DHT22;66590;50.734;4.246;2023-11-21T12:36:22;12.20;99.90
53410;DHT22;66590;50.734;4.246;2023-11-21T12:38:48;12.20;99.90
53410;DHT22;66590;50.734;4.246;2023-11-21T12:41:17;12.10;99.90
53410;DHT22;66590;50.734;4.246;2023-11-21T12:43:50;12.00;99.90
53410;DHT22;66590;50.734;4.246;2023-11-21T12:46:25;11.90;99.90
53410;DHT22;66590;50.734;4.246;2023-11-21T12:48:59;11.80;99.90
53410;DHT22;66590;50.734;4.246;2023-11-21T12:51:26;11.80;99.90
53410;DHT22;66590;50.734;4.246;2023-11-21T12:53:59;11.60;99.90
53410;DHT22;66590;50.734;4.246;2023-11-21T12:56:28;11.60;99.90
53410;DHT22;66590;50.734;4.246;2023-11-21T12:59:02;11.40;99.90
53410;DHT22;66590;50.734;4.246;2023-11-21T13:01:30;11.50;99.90
53410;DHT22;66590;50.734;4.246;2023-11-21T13:04:07;11.50;99.90
53410;DHT22;66590;50.734;4.246;2023-11-21T13:06:35;11.50;99.90
53410;DHT22;66590;50.734;4.246;2023-11-21T13:09:09;11.50;99.90
53410;DHT22;66590;50.734;4.246;2023-11-21T13:11:44;11.60;99.90
53410;DHT22;66590;50.734;4.246;2023-11-21T13:14:17;11.60;99.90
53410;DHT22;66590;50.734;4.246;2023-11-21T13:16:50;11.70;99.90
53410;DHT22;66590;50.734;4.246;2023-11-21T13:19:17;11.80;99.90
53410;DHT22;66590;50.734;4.246;2023-11-21T13:21:52;11.80;99.90
53410;DHT22;66590;50.734;4.246;2023-11-21T13:24:25;11.60;99.90
53410;DHT22;66590;50.734;4.246;2023-11-21T13:27:00;11.60;99.90
53410;DHT22;66590;50.734;4.246;2023-11-21T13:29:27;11.50;99.90
53410;DHT22;66590;50.734;4.246;2023-11-21T13:32:00;11.40;99.90
53410;DHT22;66590;50.734;4.246;2023-11-21T13:34:27;11.40;99.90
53410;DHT22;66590;50.734;4.246;2023-11-21T13:37:00;11.40;99.90
53410;DHT22;66590;50.734;4.246;2023-11-21T13:39:27;11.60;99.90
53410;DHT22;66590;50.734;4.246;2023-11-21T13:41:54;11.70;99.90
53410;DHT22;66590;50.734;4.246;2023-11-21T13:44:29;11.90;99.90
53410;DHT22;66590;50.734;4.246;2023-11-21T13:47:09;11.80;99.90
53410;DHT22;66590;50.734;4.246;2023-11-21T13:49:42;11.70;99.90
53410;DHT22;66590;50.734;4.246;2023-11-21T13:52:09;11.70;99.90
53410;DHT22;66590;50.734;4.246;2023-11-21T13:54:42;11.60;99.90
53410;DHT22;66590;50.734;4.246;2023-11-21T13:57:09;11.50;99.90
53410;DHT22;66590;50.734;4.246;2023-11-21T13:59:44;11.40;99.90
53410;DHT22;66590;50.734;4.246;2023-11-21T14:02:11;11.40;99.90
53410;DHT22;66590;50.734;4.246;2023-11-21T14:04:45;11.40;99.90
53410;DHT22;66590;50.734;4.246;2023-11-21T14:07:19;11.40;99.90
53410;DHT22;66590;50.734;4.246;2023-11-21T14:09:53;11.30;99.90
53410;DHT22;66590;50.734;4.246;2023-11-21T14:12:19;11.40;99.90
53410;DHT22;66590;50.734;4.246;2023-11-21T14:14:55;11.40;99.90
53410;DHT22;66590;50.734;4.246;2023-11-21T14:17:29;11.50;99.90
53410;DHT22;66590;50.734;4.246;2023-11-21T14:20:03;11.50;99.90
53410;DHT22;66590;50.734;4.246;2023-11-21T14:22:30;11.60;99.90
53410;DHT22;66590;50.734;4.246;2023-11-21T14:25:04;11.60;99.90
53410;DHT22;66590;50.734;4.246;2023-11-21T14:27:31;11.80;99.90
53410;DHT22;66590;50.734;4.246;2023-11-21T14:30:07;11.80;99.90
53410;DHT22;66590;50.734;4.246;2023-11-21T14:32:41;11.80;99.90
53410;DHT22;66590;50.734;4.246;2023-11-21T14:35:15;11.70;99.90
53410;DHT22;66590;50.734;4.246;2023-11-21T14:37:42;11.70;99.90
53410;DHT22;66590;50.734;4.246;2023-11-21T14:40:16;11.60;99.90
53410;DHT22;66590;50.734;4.246;2023-11-21T14:42:44;11.60;99.90
53410;DHT22;66590;50.734;4.246;2023-11-21T14:45:12;11.60;99.90
53410;DHT22;66590;50.734;4.246;2023-11-21T14:47:52;11.60;99.90
53410;DHT22;66590;50.734;4.246;2023-11-21T14:50:26;11.40;99.90
53410;DHT22;66590;50.734;4.246;2023-11-21T14:52:59;11.40;99.90
53410;DHT22;66590;50.734;4.246;2023-11-21T14:55:26;11.50;99.90
53410;DHT22;66590;50.734;4.246;2023-11-21T14:57:59;11.40;99.90
53410;DHT22;66590;50.734;4.246;2023-11-21T15:00:35;11.40;99.90
53410;DHT22;66590;50.734;4.246;2023-11-21T15:03:09;11.40;99.90
53410;DHT22;66590;50.734;4.246;2023-11-21T15:05:36;11.40;99.90
53410;DHT22;66590;50.734;4.246;2023-11-21T15:08:09;11.30;99.90
53410;DHT22;66590;50.734;4.246;2023-11-21T15:10:42;11.30;99.90
53410;DHT22;66590;50.734;4.246;2023-11-21T15:13:10;11.30;99.90
53410;DHT22;66590;50.734;4.246;2023-11-21T15:15:45;11.20;99.90
53410;DHT22;66590;50.734;4.246;2023-11-21T15:18:19;11.30;99.90
53410;DHT22;66590;50.734;4.246;2023-11-21T15:20:52;11.30;99.90
53410;DHT22;66590;50.734;4.246;2023-11-21T15:23:26;11.30;99.90
53410;DHT22;66590;50.734;4.246;2023-11-21T15:26:00;11.20;99.90
53410;DHT22;66590;50.734;4.246;2023-11-21T15:28:26;11.20;99.90
53410;DHT22;66590;50.734;4.246;2023-11-21T15:31:01;11.10;99.90
53410;DHT22;66590;50.734;4.246;2023-11-21T15:33:28;11.10;99.90
53410;DHT22;66590;50.734;4.246;2023-11-21T15:36:02;11.20;99.90
53410;DHT22;66590;50.734;4.246;2023-11-21T15:38:35;11.20;99.90
53410;DHT22;66590;50.734;4.246;2023-11-21T15:41:08;11.40;99.90
53410;DHT22;66590;50.734;4.246;2023-11-21T15:43:35;11.20;99.90
53410;DHT22;66590;50.734;4.246;2023-11-21T15:46:17;11.20;99.90
53410;DHT22;66590;50.734;4.246;2023-11-21T15:48:43;11.00;99.90
53410;DHT22;66590;50.734;4.246;2023-11-21T15:51:16;11.00;99.90
53410;DHT22;66590;50.734;4.246;2023-11-21T15:53:50;11.00;99.90
53410;DHT22;66590;50.734;4.246;2023-11-21T15:56:23;11.00;99.90
53410;DHT22;66590;50.734;4.246;2023-11-21T15:58:56;10.90;99.90
53410;DHT22;66590;50.734;4.246;2023-11-21T16:01:25;10.90;99.90
53410;DHT22;66590;50.734;4.246;2023-11-21T16:03:59;10.90;99.90
53410;DHT22;66590;50.734;4.246;2023-11-21T16:06:26;10.90;99.90
53410;DHT22;66590;50.734;4.246;2023-11-21T16:08:59;11.00;99.90